createdAt,value
2017-08-28T00:14:32.000Z,21.9
2017-08-28T00:31:21.000Z,21.9
2017-08-28T00:48:10.000Z,21.6
2017-08-28T01:04:58.000Z,21.6
2017-08-28T01:21:48.000Z,21.6
2017-08-28T01:38:36.000Z,21.6
2017-08-28T01:55:25.000Z,21.6
2017-08-28T02:12:14.000Z,21.6
2017-08-28T02:29:03.000Z,21.6
2017-08-28T02:45:51.000Z,21.3
2017-08-28T03:02:39.000Z,21.3
2017-08-28T03:19:28.000Z,21.3
2017-08-28T03:36:16.000Z,21.3
2017-08-28T03:53:04.000Z,21
2017-08-28T04:09:52.000Z,21
2017-08-28T04:26:40.000Z,21
2017-08-28T04:43:29.000Z,21
2017-08-28T05:00:16.000Z,21
2017-08-28T05:17:04.000Z,21
2017-08-28T05:33:52.000Z,21
2017-08-28T05:50:40.000Z,21
2017-08-28T06:07:27.000Z,21.3
2017-08-28T06:24:15.000Z,21.3
2017-08-28T06:41:04.000Z,21.3
2017-08-28T06:57:53.000Z,21.6
2017-08-28T07:14:41.000Z,21.6
2017-08-28T07:31:29.000Z,21.6
2017-08-28T07:48:17.000Z,21.6
2017-08-28T08:05:06.000Z,21.6
2017-08-28T08:21:54.000Z,21.9
2017-08-28T08:38:43.000Z,21.9
2017-08-28T08:55:33.000Z,22.2
2017-08-28T09:12:22.000Z,22.2
2017-08-28T09:29:11.000Z,22.6
2017-08-28T09:46:01.000Z,22.9
2017-08-28T10:02:52.000Z,23.2
2017-08-28T10:19:42.000Z,23.2
2017-08-28T10:36:33.000Z,23.5
2017-08-28T10:53:24.000Z,23.8
2017-08-28T11:10:15.000Z,23.8
2017-08-28T11:27:07.000Z,24.2
2017-08-28T11:43:58.000Z,24.2
2017-08-28T12:00:50.000Z,24.5
2017-08-28T12:17:42.000Z,24.5
2017-08-28T12:34:33.000Z,24.5
2017-08-28T12:51:26.000Z,24.5
2017-08-28T13:08:18.000Z,24.8
2017-08-28T13:25:10.000Z,24.8
2017-08-28T13:42:03.000Z,24.8
2017-08-28T13:58:55.000Z,24.8
2017-08-28T14:15:47.000Z,24.8
2017-08-28T14:32:39.000Z,24.8
2017-08-28T14:49:31.000Z,24.8
2017-08-28T15:03:02.000Z,24.8
2017-08-28T15:19:54.000Z,25.1
2017-08-28T15:36:47.000Z,25.1
2017-08-28T15:53:39.000Z,25.1
2017-08-28T16:10:32.000Z,24.8
2017-08-28T16:27:25.000Z,24.8
2017-08-28T16:44:17.000Z,24.8
2017-08-28T17:01:09.000Z,24.5
2017-08-28T17:18:01.000Z,24.5
2017-08-28T17:34:53.000Z,24.2
2017-08-28T17:51:45.000Z,23.8
2017-08-28T18:08:36.000Z,23.8
2017-08-28T18:25:28.000Z,23.5
2017-08-28T18:42:19.000Z,23.5
2017-08-28T18:59:10.000Z,23.2
2017-08-28T19:16:01.000Z,23.2
2017-08-28T19:32:52.000Z,23.2
2017-08-28T19:49:43.000Z,23.2
2017-08-28T20:06:34.000Z,23.2
2017-08-28T20:23:24.000Z,22.9
2017-08-28T20:40:14.000Z,22.6
2017-08-28T20:57:04.000Z,22.6
2017-08-28T21:13:54.000Z,22.6
2017-08-28T21:30:43.000Z,21.9
2017-08-28T21:47:31.000Z,21.9
2017-08-28T22:04:20.000Z,21.9
2017-08-28T22:21:09.000Z,21.6
2017-08-28T22:37:57.000Z,21.6
2017-08-28T22:54:45.000Z,21.6
2017-08-28T23:11:33.000Z,21.3
2017-08-28T23:28:22.000Z,21
2017-08-28T23:45:09.000Z,21
